createdAt,value
2022-08-05T00:01:28.489Z,46.10
2022-08-05T00:04:23.627Z,45.80
2022-08-05T00:07:32.154Z,45.70
2022-08-05T00:10:30.118Z,46.00
2022-08-05T00:13:39.139Z,46.00
2022-08-05T00:16:36.043Z,45.80
2022-08-05T00:20:01.892Z,46.00
2022-08-05T00:23:02.248Z,45.90
2022-08-05T00:25:55.385Z,46.70
2022-08-05T00:28:51.459Z,47.10
2022-08-05T00:32:11.039Z,46.90
2022-08-05T00:35:06.162Z,46.10
2022-08-05T00:38:00.482Z,47.00
2022-08-05T00:40:58.969Z,46.20
2022-08-05T00:43:53.519Z,46.80
2022-08-05T00:46:46.617Z,47.30
2022-08-05T00:49:51.447Z,47.30
2022-08-05T00:52:46.890Z,47.70
2022-08-05T00:55:42.821Z,47.00
2022-08-05T00:58:38.172Z,46.60
2022-08-05T01:01:48.754Z,46.90
2022-08-05T01:04:42.556Z,46.70
2022-08-05T01:07:36.355Z,47.20
2022-08-05T01:10:36.846Z,46.70
2022-08-05T01:13:58.539Z,46.70
2022-08-05T01:16:55.612Z,46.90
2022-08-05T01:20:01.915Z,46.70
2022-08-05T01:23:15.316Z,47.00
2022-08-05T01:26:33.433Z,46.90
2022-08-05T01:29:32.701Z,46.50
2022-08-05T01:32:33.377Z,46.40
2022-08-05T01:35:50.953Z,46.50
2022-08-05T01:38:48.483Z,46.30
2022-08-05T01:41:44.605Z,46.60
2022-08-05T01:44:41.347Z,46.30
2022-08-05T01:47:39.683Z,47.40
2022-08-05T01:50:40.723Z,46.90
2022-08-05T01:53:57.064Z,47.10
2022-08-05T01:58:09.771Z,47.20
2022-08-05T02:00:11.856Z,47.40
2022-08-05T02:03:24.312Z,47.50
2022-08-05T02:06:37.523Z,47.10
2022-08-05T02:09:31.652Z,47.50
2022-08-05T02:12:35.270Z,47.70
2022-08-05T02:15:35.383Z,47.80
2022-08-05T02:18:34.903Z,47.90
2022-08-05T02:21:38.068Z,47.70
2022-08-05T02:24:40.661Z,47.80
2022-08-05T02:27:58.121Z,48.20
2022-08-05T02:30:59.632Z,48.90
2022-08-05T02:33:57.522Z,48.00
2022-08-05T02:36:55.411Z,48.90
2022-08-05T02:39:51.745Z,48.70
2022-08-05T02:42:52.880Z,48.70
2022-08-05T02:45:52.294Z,49.60
2022-08-05T02:48:49.435Z,49.70
2022-08-05T02:52:03.546Z,50.60
2022-08-05T02:54:58.671Z,50.70
2022-08-05T02:58:20.022Z,51.50
2022-08-05T03:01:14.539Z,51.80
2022-08-05T03:04:15.754Z,51.70
2022-08-05T03:07:09.063Z,51.70
2022-08-05T03:10:24.835Z,52.30
2022-08-05T03:13:19.144Z,52.80
2022-08-05T03:16:21.252Z,52.90
2022-08-05T03:19:29.494Z,53.00
2022-08-05T03:22:32.122Z,52.90
2022-08-05T03:26:03.470Z,53.40
2022-08-05T03:28:40.735Z,53.70
2022-08-05T03:31:55.813Z,53.50
2022-08-05T03:34:51.062Z,53.70
2022-08-05T03:37:46.212Z,53.20
2022-08-05T03:40:45.374Z,53.50
2022-08-05T03:44:09.335Z,54.00
2022-08-05T03:46:53.691Z,54.20
2022-08-05T03:49:52.046Z,54.10
2022-08-05T03:55:34.376Z,54.00
2022-08-05T03:56:17.129Z,54.30
2022-08-05T03:59:24.959Z,53.00
2022-08-05T04:02:39.182Z,53.30
2022-08-05T04:05:37.266Z,53.80
2022-08-05T04:08:36.562Z,53.70
2022-08-05T04:11:50.437Z,53.90
2022-08-05T04:14:43.923Z,53.90
2022-08-05T04:17:57.154Z,54.00
2022-08-05T04:20:55.831Z,54.20
2022-08-05T04:24:01.715Z,54.00
2022-08-05T04:26:59.625Z,54.10
2022-08-05T04:29:53.619Z,54.20
2022-08-05T04:32:46.766Z,54.30
2022-08-05T04:36:15.738Z,54.20
2022-08-05T04:38:55.903Z,54.30
2022-08-05T04:41:52.403Z,53.90
2022-08-05T04:44:45.608Z,54.10
2022-08-05T04:47:38.724Z,53.50
2022-08-05T04:51:03.097Z,54.00
2022-08-05T04:53:58.001Z,54.30
2022-08-05T04:56:58.916Z,53.30
2022-08-05T04:59:52.536Z,54.30
2022-08-05T05:02:45.690Z,54.30
2022-08-05T05:06:39.324Z,54.50
2022-08-05T05:08:52.506Z,53.70
2022-08-05T05:11:54.370Z,54.30
2022-08-05T05:14:50.781Z,54.90
2022-08-05T05:17:57.019Z,54.80
2022-08-05T05:20:50.520Z,54.70
2022-08-05T05:24:03.762Z,54.90
2022-08-05T05:26:59.152Z,55.10
2022-08-05T05:30:04.350Z,55.00
2022-08-05T05:33:00.493Z,55.30
2022-08-05T05:35:56.889Z,54.30
2022-08-05T05:38:50.633Z,54.60
2022-08-05T05:41:43.972Z,54.80
2022-08-05T05:44:49.220Z,54.80
2022-08-05T05:48:06.210Z,54.90
2022-08-05T05:50:57.914Z,55.10
2022-08-05T05:53:57.723Z,54.90
2022-08-05T05:56:52.717Z,55.20
2022-08-05T05:59:45.516Z,55.20
2022-08-05T06:02:41.341Z,55.90
2022-08-05T06:05:35.125Z,55.30
2022-08-05T06:08:32.510Z,55.60
2022-08-05T06:11:26.197Z,55.70
2022-08-05T06:14:22.672Z,55.20
2022-08-05T06:17:24.648Z,55.40
2022-08-05T06:20:26.201Z,55.10
2022-08-05T06:23:22.073Z,55.10
2022-08-05T06:26:24.025Z,55.30
2022-08-05T06:29:43.103Z,55.30
2022-08-05T06:32:31.857Z,55.50
2022-08-05T06:36:07.160Z,55.50
2022-08-05T06:38:40.051Z,55.20
2022-08-05T06:41:41.316Z,55.40
2022-08-05T06:44:35.856Z,55.20
2022-08-05T06:48:12.019Z,55.10
2022-08-05T06:50:44.114Z,55.80
2022-08-05T06:53:42.951Z,55.60
2022-08-05T06:56:54.905Z,54.90
2022-08-05T07:00:03.134Z,54.50
2022-08-05T07:02:57.802Z,54.60
2022-08-05T07:05:52.317Z,54.20
2022-08-05T07:08:52.063Z,54.00
2022-08-05T07:11:51.555Z,54.20
2022-08-05T07:15:02.336Z,54.30
2022-08-05T07:18:08.669Z,54.00
2022-08-05T07:21:06.946Z,53.50
2022-08-05T07:24:01.981Z,53.90
2022-08-05T07:26:55.784Z,53.70
2022-08-05T07:30:24.482Z,53.70
2022-08-05T07:33:09.022Z,53.70
2022-08-05T07:36:20.282Z,53.00
2022-08-05T07:39:24.873Z,53.60
2022-08-05T07:42:31.857Z,54.30
2022-08-05T07:45:56.412Z,54.20
2022-08-05T07:49:01.973Z,54.20
2022-08-05T07:51:55.650Z,54.70
2022-08-05T07:54:49.348Z,57.80
2022-08-05T07:57:58.766Z,56.20
2022-08-05T08:00:56.026Z,56.00
2022-08-05T08:03:51.303Z,55.50
2022-08-05T08:06:45.115Z,55.50
2022-08-05T08:09:39.915Z,55.80
2022-08-05T08:12:49.365Z,56.40
2022-08-05T08:16:34.791Z,56.30
2022-08-05T08:18:56.797Z,55.70
2022-08-05T08:21:51.094Z,55.30
2022-08-05T08:24:51.348Z,55.30
2022-08-05T08:27:47.948Z,55.30
2022-08-05T08:30:47.512Z,56.20
2022-08-05T08:33:42.653Z,56.60
2022-08-05T08:36:47.703Z,57.00
2022-08-05T08:39:49.515Z,55.70
2022-08-05T08:42:51.067Z,56.90
2022-08-05T08:45:48.130Z,57.50
2022-08-05T08:49:06.196Z,58.10
2022-08-05T08:52:13.468Z,57.80
2022-08-05T08:55:13.214Z,56.50
2022-08-05T08:58:10.172Z,57.20
2022-08-05T09:01:07.788Z,57.30
2022-08-05T09:04:04.323Z,56.60
2022-08-05T09:07:10.663Z,56.70
2022-08-05T09:10:12.985Z,56.00
2022-08-05T09:13:08.645Z,56.10
2022-08-05T09:16:02.261Z,55.60
2022-08-05T09:18:55.915Z,54.90
2022-08-05T09:22:22.562Z,55.50
2022-08-05T09:25:13.735Z,55.60
2022-08-05T09:28:21.163Z,56.10
2022-08-05T09:31:43.748Z,56.10
2022-08-05T09:34:50.730Z,56.30
2022-08-05T09:38:13.076Z,56.10
2022-08-05T09:41:07.176Z,56.20
2022-08-05T09:44:03.613Z,56.50
2022-08-05T09:47:12.473Z,56.70
2022-08-05T09:50:08.284Z,56.50
2022-08-05T09:53:02.048Z,52.50
2022-08-05T09:56:04.556Z,52.20
2022-08-05T09:59:06.907Z,52.20
2022-08-05T10:02:00.064Z,52.10
2022-08-05T10:04:55.249Z,52.10
2022-08-05T10:08:34.718Z,52.20
2022-08-05T10:11:07.553Z,52.50
2022-08-05T10:14:22.253Z,51.50
2022-08-05T10:17:39.944Z,51.70
2022-08-05T10:20:31.058Z,51.90
2022-08-05T10:23:55.158Z,52.50
2022-08-05T10:26:51.245Z,52.10
2022-08-05T10:30:41.263Z,52.40
2022-08-05T10:33:02.918Z,50.80
2022-08-05T10:35:59.918Z,50.70
2022-08-05T10:38:58.448Z,50.40
2022-08-05T10:42:01.142Z,50.20
2022-08-05T10:44:57.772Z,50.00
2022-08-05T10:48:29.948Z,49.90
2022-08-05T10:51:22.087Z,49.80
2022-08-05T10:54:29.948Z,49.90
2022-08-05T10:57:31.896Z,50.50
2022-08-05T11:00:30.872Z,50.60
2022-08-05T11:03:26.926Z,50.60
2022-08-05T11:06:19.807Z,50.80
2022-08-05T11:09:24.417Z,50.30
2022-08-05T11:12:54.262Z,50.40
2022-08-05T11:16:01.080Z,50.30
2022-08-05T11:20:11.339Z,50.10
2022-08-05T11:22:42.326Z,51.00
2022-08-05T11:26:05.499Z,50.30
2022-08-05T11:28:53.379Z,50.50
2022-08-05T11:31:56.609Z,50.30
2022-08-05T11:34:54.420Z,50.20
2022-08-05T11:38:28.067Z,50.20
2022-08-05T11:41:56.287Z,50.20
2022-08-05T11:44:52.859Z,50.00
2022-08-05T11:47:50.377Z,49.90
2022-08-05T11:50:49.266Z,50.00
2022-08-05T11:53:42.808Z,50.00
2022-08-05T11:56:50.119Z,50.00
2022-08-05T11:59:49.795Z,49.90
2022-08-05T12:02:44.615Z,49.90
2022-08-05T12:05:40.031Z,50.00
2022-08-05T12:08:51.123Z,50.00
2022-08-05T12:11:45.464Z,50.00
2022-08-05T12:14:43.277Z,49.90
2022-08-05T12:18:00.783Z,50.00
2022-08-05T12:20:54.484Z,50.00
2022-08-05T12:24:05.130Z,50.00
2022-08-05T12:26:59.165Z,50.10
2022-08-05T12:30:05.275Z,50.00
2022-08-05T12:32:58.735Z,50.10
2022-08-05T12:36:08.155Z,50.10
2022-08-05T12:39:05.519Z,50.10
2022-08-05T12:42:00.912Z,50.10
2022-08-05T12:45:03.550Z,50.20
2022-08-05T12:48:32.166Z,50.10
2022-08-05T12:52:14.291Z,50.20
2022-08-05T12:54:45.377Z,50.20
2022-08-05T12:58:38.769Z,50.20
2022-08-05T13:02:02.757Z,50.20
2022-08-05T13:04:10.142Z,50.30
2022-08-05T13:07:11.080Z,50.20
2022-08-05T13:10:13.038Z,50.20
2022-08-05T13:13:10.647Z,50.30
2022-08-05T13:16:25.185Z,50.30
2022-08-05T13:19:24.799Z,50.30
2022-08-05T13:22:28.363Z,50.30
2022-08-05T13:25:52.412Z,50.40
2022-08-05T13:28:35.942Z,50.30
2022-08-05T13:32:04.482Z,50.30
2022-08-05T13:34:51.999Z,50.20
2022-08-05T13:37:46.416Z,50.20
2022-08-05T13:40:51.554Z,50.30
2022-08-05T13:43:54.580Z,50.20
2022-08-05T13:47:04.492Z,50.20
2022-08-05T13:50:04.497Z,50.20
2022-08-05T13:52:59.316Z,50.20
2022-08-05T13:56:00.214Z,50.20
2022-08-05T13:58:55.172Z,50.30
2022-08-05T14:01:59.122Z,52.30
2022-08-05T14:05:11.438Z,53.80
2022-08-05T14:08:20.316Z,53.70
2022-08-05T14:11:22.194Z,53.80
2022-08-05T14:14:15.306Z,53.20
2022-08-05T14:17:19.277Z,53.90
2022-08-05T14:20:17.452Z,56.30
2022-08-05T14:23:12.457Z,54.30
2022-08-05T14:26:08.658Z,55.10
2022-08-05T14:29:22.142Z,54.50
2022-08-05T14:32:26.932Z,53.60
2022-08-05T14:35:22.850Z,53.20
2022-08-05T14:38:32.341Z,52.30
2022-08-05T14:41:27.642Z,52.10
2022-08-05T14:44:21.933Z,51.90
2022-08-05T14:47:15.237Z,52.40
2022-08-05T14:50:17.694Z,51.60
2022-08-05T14:53:13.301Z,52.00
2022-08-05T14:56:09.252Z,51.80
2022-08-05T14:59:05.503Z,51.80
2022-08-05T15:01:59.985Z,51.70
2022-08-05T15:04:53.021Z,51.50
2022-08-05T15:08:08.843Z,51.70
2022-08-05T15:10:59.352Z,52.30
2022-08-05T15:13:54.710Z,52.00
2022-08-05T15:16:48.160Z,52.20
2022-08-05T15:19:48.996Z,51.70
2022-08-05T15:22:42.523Z,52.00
2022-08-05T15:25:50.910Z,52.00
2022-08-05T15:28:45.341Z,52.20
2022-08-05T15:31:52.396Z,52.00
2022-08-05T15:34:46.057Z,52.00
2022-08-05T15:38:32.299Z,52.70
2022-08-05T15:41:04.163Z,52.60
2022-08-05T15:44:05.630Z,52.20
2022-08-05T15:47:03.568Z,51.80
2022-08-05T15:49:59.448Z,51.90
2022-08-05T15:52:55.302Z,51.50
2022-08-05T15:56:02.986Z,51.60
2022-08-05T15:58:58.336Z,50.90
2022-08-05T16:01:53.705Z,50.70
2022-08-05T16:04:49.324Z,50.20
2022-08-05T16:07:46.246Z,50.40
2022-08-05T16:10:40.158Z,50.20
2022-08-05T16:13:35.099Z,49.80
2022-08-05T16:16:28.538Z,49.90
2022-08-05T16:20:03.034Z,49.80
2022-08-05T16:22:38.030Z,49.30
2022-08-05T16:25:32.298Z,49.50
2022-08-05T16:28:28.148Z,49.40
2022-08-05T16:31:21.210Z,49.30
2022-08-05T16:34:15.054Z,49.00
2022-08-05T16:38:03.553Z,49.30
2022-08-05T16:40:28.549Z,49.30
2022-08-05T16:43:23.686Z,49.20
2022-08-05T16:46:24.245Z,49.00
2022-08-05T16:49:18.659Z,49.00
2022-08-05T16:52:14.293Z,48.40
2022-08-05T16:55:08.296Z,48.50
2022-08-05T16:58:03.529Z,48.20
2022-08-05T17:01:02.585Z,47.80
2022-08-05T17:03:59.990Z,48.00
2022-08-05T17:06:54.219Z,48.00
2022-08-05T17:09:58.201Z,47.60
2022-08-05T17:12:52.481Z,47.70
2022-08-05T17:15:48.873Z,47.50
2022-08-05T17:18:46.480Z,47.40
2022-08-05T17:21:41.353Z,48.20
2022-08-05T17:24:56.719Z,47.10
2022-08-05T17:27:51.502Z,47.60
2022-08-05T17:30:51.907Z,47.10
2022-08-05T17:33:48.393Z,47.30
2022-08-05T17:36:44.815Z,47.50
2022-08-05T17:39:38.365Z,47.60
2022-08-05T17:42:41.830Z,47.80
2022-08-05T17:45:43.161Z,47.30
2022-08-05T17:48:37.583Z,47.90
2022-08-05T17:51:40.476Z,47.70
2022-08-05T17:54:35.509Z,47.80
2022-08-05T17:57:28.934Z,47.80
2022-08-05T18:00:28.662Z,47.20
2022-08-05T18:03:58.950Z,47.50
2022-08-05T18:06:40.166Z,47.40
2022-08-05T18:09:59.066Z,47.20
2022-08-05T18:12:54.573Z,46.90
2022-08-05T18:15:47.521Z,46.90
2022-08-05T18:18:48.059Z,46.90
2022-08-05T18:22:09.475Z,46.50
2022-08-05T18:24:58.784Z,46.50
2022-08-05T18:27:52.867Z,46.40
2022-08-05T18:30:50.901Z,46.00
2022-08-05T18:33:47.011Z,46.00
2022-08-05T18:36:44.461Z,45.90
2022-08-05T18:40:29.564Z,45.30
2022-08-05T18:42:50.900Z,45.30
2022-08-05T18:45:45.387Z,45.40
2022-08-05T18:48:41.736Z,44.90
2022-08-05T18:52:04.928Z,44.30
2022-08-05T18:55:02.651Z,44.20
2022-08-05T18:58:03.166Z,43.80
2022-08-05T19:00:56.974Z,43.50
2022-08-05T19:03:55.444Z,43.70
2022-08-05T19:06:50.698Z,44.10
2022-08-05T19:09:45.954Z,43.40
2022-08-05T19:12:41.395Z,43.40
2022-08-05T19:16:00.257Z,43.40
2022-08-05T19:18:50.572Z,43.30
2022-08-05T19:21:44.555Z,43.40
2022-08-05T19:24:37.799Z,43.10
2022-08-05T19:27:49.804Z,43.10
2022-08-05T19:30:48.886Z,42.80
2022-08-05T19:33:55.672Z,42.90
2022-08-05T19:36:50.831Z,43.10
2022-08-05T19:39:45.670Z,43.10
2022-08-05T19:43:04.890Z,43.10
2022-08-05T19:45:59.634Z,42.90
2022-08-05T19:48:52.543Z,42.80
2022-08-05T19:52:08.606Z,42.50
2022-08-05T19:55:00.505Z,42.30
2022-08-05T19:58:19.749Z,42.30
2022-08-05T20:01:14.518Z,42.20
2022-08-05T20:04:09.907Z,42.10
2022-08-05T20:07:03.915Z,42.20
2022-08-05T20:10:10.768Z,42.20
2022-08-05T20:13:06.494Z,42.30
2022-08-05T20:16:02.219Z,42.30
2022-08-05T20:18:59.294Z,42.40
2022-08-05T20:21:54.261Z,42.00
2022-08-05T20:24:48.490Z,42.10
2022-08-05T20:27:42.695Z,42.20
2022-08-05T20:30:36.178Z,42.30
2022-08-05T20:33:29.832Z,42.30
2022-08-05T20:36:25.910Z,42.20
2022-08-05T20:39:19.426Z,42.00
2022-08-05T20:42:12.496Z,42.00
2022-08-05T20:45:06.448Z,41.90
2022-08-05T20:47:59.816Z,41.90
2022-08-05T20:50:53.614Z,41.90
2022-08-05T20:53:55.228Z,42.00
2022-08-05T20:56:50.304Z,42.30
2022-08-05T21:00:10.521Z,41.90
2022-08-05T21:03:00.035Z,41.80
2022-08-05T21:05:55.577Z,41.80
2022-08-05T21:08:53.955Z,41.90
2022-08-05T21:12:07.293Z,41.80
2022-08-05T21:15:00.515Z,41.70
2022-08-05T21:17:54.087Z,41.60
2022-08-05T21:20:47.665Z,41.60
2022-08-05T21:23:40.464Z,41.60
2022-08-05T21:26:35.837Z,41.60
2022-08-05T21:29:31.775Z,41.60
2022-08-05T21:32:27.014Z,41.50
2022-08-05T21:35:30.316Z,42.30
2022-08-05T21:38:40.113Z,41.80
2022-08-05T21:41:35.423Z,41.70
2022-08-05T21:44:28.446Z,41.70
2022-08-05T21:47:55.075Z,41.60
2022-08-05T21:50:34.802Z,41.70
2022-08-05T21:53:30.871Z,41.70
2022-08-05T21:56:27.388Z,41.60
2022-08-05T21:59:22.600Z,41.80
2022-08-05T22:02:17.505Z,41.70
2022-08-05T22:05:11.542Z,41.60
2022-08-05T22:08:04.632Z,41.50
2022-08-05T22:10:58.836Z,41.60
2022-08-05T22:14:19.487Z,41.60
2022-08-05T22:17:06.683Z,41.50
2022-08-05T22:20:13.220Z,41.50
2022-08-05T22:23:25.420Z,41.50
2022-08-05T22:26:55.642Z,41.40
2022-08-05T22:29:49.522Z,41.40
2022-08-05T22:32:48.869Z,41.30
2022-08-05T22:35:49.208Z,41.30
2022-08-05T22:38:43.121Z,41.10
2022-08-05T22:42:09.720Z,41.10
2022-08-05T22:44:56.780Z,41.10
2022-08-05T22:47:55.382Z,41.10
2022-08-05T22:50:56.266Z,41.10
2022-08-05T22:53:49.948Z,41.00
2022-08-05T22:56:43.955Z,41.00
2022-08-05T22:59:51.881Z,40.80
2022-08-05T23:02:47.963Z,40.80
2022-08-05T23:05:43.754Z,40.90
2022-08-05T23:08:37.426Z,40.80
2022-08-05T23:11:32.800Z,40.80
2022-08-05T23:14:31.730Z,40.80
2022-08-05T23:17:34.300Z,40.70
2022-08-05T23:20:32.216Z,40.70
2022-08-05T23:23:29.962Z,40.60
2022-08-05T23:26:26.798Z,40.50
2022-08-05T23:29:20.697Z,40.50
2022-08-05T23:32:14.162Z,40.40
2022-08-05T23:35:08.528Z,40.50
2022-08-05T23:38:02.946Z,40.50
2022-08-05T23:40:58.985Z,40.20
2022-08-05T23:44:05.978Z,40.30
2022-08-05T23:47:02.551Z,40.20
2022-08-05T23:50:09.552Z,40.10
2022-08-05T23:53:03.343Z,40.00
2022-08-05T23:55:57.945Z,40.10
2022-08-05T23:58:52.483Z,40.10
